sensor_id;sensor_type;location;lat;lon;timestamp;P1;durP1;ratioP1;P2;durP2;ratioP2
14060;SDS011;7105;43.616;1.434;2023-04-06T00:01:35;9.77;;;6.40;;
14060;SDS011;7105;43.616;1.434;2023-04-06T00:04:01;10.00;;;6.40;;
14060;SDS011;7105;43.616;1.434;2023-04-06T00:06:26;7.67;;;6.40;;
14060;SDS011;7105;43.616;1.434;2023-04-06T00:08:52;9.13;;;6.70;;
14060;SDS011;7105;43.616;1.434;2023-04-06T00:11:18;9.03;;;6.40;;
14060;SDS011;7105;43.616;1.434;2023-04-06T00:13:44;8.50;;;6.37;;
14060;SDS011;7105;43.616;1.434;2023-04-06T00:16:10;7.60;;;6.17;;
14060;SDS011;7105;43.616;1.434;2023-04-06T00:18:36;10.07;;;6.80;;
14060;SDS011;7105;43.616;1.434;2023-04-06T00:21:02;7.43;;;5.83;;
14060;SDS011;7105;43.616;1.434;2023-04-06T00:23:28;9.10;;;6.60;;
14060;SDS011;7105;43.616;1.434;2023-04-06T00:25:54;9.70;;;5.97;;
14060;SDS011;7105;43.616;1.434;2023-04-06T00:28:20;8.73;;;6.20;;
14060;SDS011;7105;43.616;1.434;2023-04-06T00:30:50;8.17;;;6.57;;
14060;SDS011;7105;43.616;1.434;2023-04-06T00:33:17;8.40;;;6.33;;
14060;SDS011;7105;43.616;1.434;2023-04-06T00:35:44;8.80;;;6.27;;
14060;SDS011;7105;43.616;1.434;2023-04-06T00:38:10;7.93;;;6.43;;
14060;SDS011;7105;43.616;1.434;2023-04-06T00:40:36;7.87;;;6.60;;
14060;SDS011;7105;43.616;1.434;2023-04-06T00:43:02;9.20;;;6.63;;
14060;SDS011;7105;43.616;1.434;2023-04-06T00:45:28;10.07;;;6.00;;
14060;SDS011;7105;43.616;1.434;2023-04-06T00:47:53;8.77;;;5.90;;
14060;SDS011;7105;43.616;1.434;2023-04-06T00:50:19;9.33;;;6.43;;
14060;SDS011;7105;43.616;1.434;2023-04-06T00:52:45;9.53;;;6.40;;
14060;SDS011;7105;43.616;1.434;2023-04-06T00:55:10;9.40;;;6.67;;
14060;SDS011;7105;43.616;1.434;2023-04-06T00:57:37;9.37;;;6.30;;
14060;SDS011;7105;43.616;1.434;2023-04-06T01:00:03;8.87;;;6.00;;
14060;SDS011;7105;43.616;1.434;2023-04-06T01:02:30;9.17;;;5.80;;
14060;SDS011;7105;43.616;1.434;2023-04-06T01:04:55;9.07;;;5.73;;
14060;SDS011;7105;43.616;1.434;2023-04-06T01:07:21;7.53;;;5.77;;
14060;SDS011;7105;43.616;1.434;2023-04-06T01:09:47;8.67;;;5.73;;
14060;SDS011;7105;43.616;1.434;2023-04-06T01:12:13;7.97;;;6.07;;
14060;SDS011;7105;43.616;1.434;2023-04-06T01:14:38;8.90;;;5.27;;
14060;SDS011;7105;43.616;1.434;2023-04-06T01:17:04;8.57;;;5.50;;
14060;SDS011;7105;43.616;1.434;2023-04-06T01:19:30;6.07;;;4.87;;
14060;SDS011;7105;43.616;1.434;2023-04-06T01:21:55;6.23;;;5.20;;
14060;SDS011;7105;43.616;1.434;2023-04-06T01:24:21;7.43;;;4.87;;
14060;SDS011;7105;43.616;1.434;2023-04-06T01:26:47;7.03;;;5.17;;
14060;SDS011;7105;43.616;1.434;2023-04-06T01:29:13;7.83;;;4.90;;
14060;SDS011;7105;43.616;1.434;2023-04-06T01:31:38;5.97;;;4.33;;
14060;SDS011;7105;43.616;1.434;2023-04-06T01:34:05;7.07;;;4.90;;
14060;SDS011;7105;43.616;1.434;2023-04-06T01:36:30;8.43;;;4.47;;
14060;SDS011;7105;43.616;1.434;2023-04-06T01:38:56;7.97;;;4.87;;
14060;SDS011;7105;43.616;1.434;2023-04-06T01:41:22;6.83;;;4.97;;
14060;SDS011;7105;43.616;1.434;2023-04-06T01:43:48;6.53;;;4.57;;
14060;SDS011;7105;43.616;1.434;2023-04-06T01:46:14;4.70;;;4.20;;
14060;SDS011;7105;43.616;1.434;2023-04-06T01:48:40;8.00;;;5.67;;
14060;SDS011;7105;43.616;1.434;2023-04-06T01:51:06;5.50;;;4.10;;
14060;SDS011;7105;43.616;1.434;2023-04-06T01:53:32;5.07;;;4.30;;
14060;SDS011;7105;43.616;1.434;2023-04-06T01:55:58;7.07;;;4.60;;
14060;SDS011;7105;43.616;1.434;2023-04-06T01:58:24;6.03;;;4.63;;
14060;SDS011;7105;43.616;1.434;2023-04-06T02:00:50;5.53;;;4.10;;
14060;SDS011;7105;43.616;1.434;2023-04-06T02:03:16;6.00;;;4.13;;
14060;SDS011;7105;43.616;1.434;2023-04-06T02:05:41;8.13;;;4.70;;
14060;SDS011;7105;43.616;1.434;2023-04-06T02:08:07;7.40;;;4.27;;
14060;SDS011;7105;43.616;1.434;2023-04-06T02:10:33;5.63;;;4.50;;
14060;SDS011;7105;43.616;1.434;2023-04-06T02:13:00;5.50;;;4.20;;
14060;SDS011;7105;43.616;1.434;2023-04-06T02:15:26;4.50;;;4.10;;
14060;SDS011;7105;43.616;1.434;2023-04-06T02:17:52;5.23;;;4.10;;
14060;SDS011;7105;43.616;1.434;2023-04-06T02:20:18;5.40;;;4.30;;
14060;SDS011;7105;43.616;1.434;2023-04-06T02:22:44;5.63;;;3.60;;
14060;SDS011;7105;43.616;1.434;2023-04-06T02:25:10;5.20;;;3.93;;
14060;SDS011;7105;43.616;1.434;2023-04-06T02:27:36;5.30;;;4.43;;
14060;SDS011;7105;43.616;1.434;2023-04-06T02:30:03;5.33;;;4.10;;
14060;SDS011;7105;43.616;1.434;2023-04-06T02:32:29;5.13;;;3.93;;
14060;SDS011;7105;43.616;1.434;2023-04-06T02:34:55;6.53;;;3.80;;
14060;SDS011;7105;43.616;1.434;2023-04-06T02:37:20;5.47;;;4.10;;
14060;SDS011;7105;43.616;1.434;2023-04-06T02:39:48;6.03;;;4.03;;
14060;SDS011;7105;43.616;1.434;2023-04-06T02:42:13;6.03;;;4.10;;
14060;SDS011;7105;43.616;1.434;2023-04-06T02:44:40;5.70;;;4.40;;
14060;SDS011;7105;43.616;1.434;2023-04-06T02:47:06;4.67;;;3.80;;
14060;SDS011;7105;43.616;1.434;2023-04-06T02:49:32;6.40;;;4.13;;
14060;SDS011;7105;43.616;1.434;2023-04-06T02:51:58;5.43;;;4.07;;
14060;SDS011;7105;43.616;1.434;2023-04-06T02:54:23;5.07;;;3.90;;
14060;SDS011;7105;43.616;1.434;2023-04-06T02:56:49;5.87;;;4.07;;
14060;SDS011;7105;43.616;1.434;2023-04-06T02:59:15;5.03;;;3.77;;
14060;SDS011;7105;43.616;1.434;2023-04-06T03:01:41;5.57;;;4.30;;
14060;SDS011;7105;43.616;1.434;2023-04-06T03:04:06;4.43;;;3.90;;
14060;SDS011;7105;43.616;1.434;2023-04-06T03:06:32;4.67;;;4.07;;
14060;SDS011;7105;43.616;1.434;2023-04-06T03:08:58;5.60;;;4.30;;
14060;SDS011;7105;43.616;1.434;2023-04-06T03:11:23;5.37;;;3.97;;
14060;SDS011;7105;43.616;1.434;2023-04-06T03:13:51;7.10;;;4.37;;
14060;SDS011;7105;43.616;1.434;2023-04-06T03:16:17;5.57;;;3.93;;
14060;SDS011;7105;43.616;1.434;2023-04-06T03:18:42;5.30;;;4.03;;
14060;SDS011;7105;43.616;1.434;2023-04-06T03:21:10;4.90;;;3.77;;
14060;SDS011;7105;43.616;1.434;2023-04-06T03:23:36;5.77;;;4.10;;
14060;SDS011;7105;43.616;1.434;2023-04-06T03:26:02;5.43;;;4.03;;
14060;SDS011;7105;43.616;1.434;2023-04-06T03:28:28;5.87;;;4.47;;
14060;SDS011;7105;43.616;1.434;2023-04-06T03:30:54;5.43;;;3.97;;
14060;SDS011;7105;43.616;1.434;2023-04-06T03:33:20;6.87;;;4.10;;
14060;SDS011;7105;43.616;1.434;2023-04-06T03:35:45;4.10;;;3.70;;
14060;SDS011;7105;43.616;1.434;2023-04-06T03:38:11;6.20;;;3.83;;
14060;SDS011;7105;43.616;1.434;2023-04-06T03:40:37;5.57;;;3.93;;
14060;SDS011;7105;43.616;1.434;2023-04-06T03:43:03;4.93;;;3.77;;
14060;SDS011;7105;43.616;1.434;2023-04-06T03:45:29;5.27;;;3.73;;
14060;SDS011;7105;43.616;1.434;2023-04-06T03:47:55;4.97;;;3.93;;
14060;SDS011;7105;43.616;1.434;2023-04-06T03:50:21;4.97;;;3.77;;
14060;SDS011;7105;43.616;1.434;2023-04-06T03:52:47;4.87;;;3.57;;
14060;SDS011;7105;43.616;1.434;2023-04-06T03:55:15;7.00;;;4.03;;
14060;SDS011;7105;43.616;1.434;2023-04-06T03:57:41;4.60;;;3.93;;
14060;SDS011;7105;43.616;1.434;2023-04-06T04:00:07;4.43;;;3.67;;
14060;SDS011;7105;43.616;1.434;2023-04-06T04:02:34;9.40;;;3.80;;
14060;SDS011;7105;43.616;1.434;2023-04-06T04:05:00;8.37;;;4.13;;
14060;SDS011;7105;43.616;1.434;2023-04-06T04:07:25;4.47;;;3.87;;
14060;SDS011;7105;43.616;1.434;2023-04-06T04:09:51;4.00;;;3.60;;
14060;SDS011;7105;43.616;1.434;2023-04-06T04:12:17;5.10;;;3.70;;
14060;SDS011;7105;43.616;1.434;2023-04-06T04:14:43;4.63;;;3.67;;
14060;SDS011;7105;43.616;1.434;2023-04-06T04:17:08;6.20;;;3.97;;
14060;SDS011;7105;43.616;1.434;2023-04-06T04:19:34;5.33;;;3.90;;
14060;SDS011;7105;43.616;1.434;2023-04-06T04:22:00;4.37;;;3.67;;
14060;SDS011;7105;43.616;1.434;2023-04-06T04:24:29;4.13;;;3.60;;
14060;SDS011;7105;43.616;1.434;2023-04-06T04:26:55;6.23;;;4.30;;
14060;SDS011;7105;43.616;1.434;2023-04-06T04:29:21;4.03;;;3.53;;
14060;SDS011;7105;43.616;1.434;2023-04-06T04:31:48;6.07;;;4.03;;
14060;SDS011;7105;43.616;1.434;2023-04-06T04:34:14;5.37;;;4.20;;
14060;SDS011;7105;43.616;1.434;2023-04-06T04:36:40;3.93;;;3.40;;
14060;SDS011;7105;43.616;1.434;2023-04-06T04:39:09;5.83;;;4.07;;
14060;SDS011;7105;43.616;1.434;2023-04-06T04:41:35;7.23;;;3.90;;
14060;SDS011;7105;43.616;1.434;2023-04-06T04:44:00;4.93;;;4.20;;
14060;SDS011;7105;43.616;1.434;2023-04-06T04:46:26;4.77;;;3.70;;
14060;SDS011;7105;43.616;1.434;2023-04-06T04:48:52;4.40;;;3.30;;
14060;SDS011;7105;43.616;1.434;2023-04-06T04:51:17;5.20;;;3.87;;
14060;SDS011;7105;43.616;1.434;2023-04-06T04:53:44;4.83;;;3.90;;
14060;SDS011;7105;43.616;1.434;2023-04-06T04:56:10;5.87;;;4.13;;
14060;SDS011;7105;43.616;1.434;2023-04-06T04:58:36;6.67;;;4.17;;
14060;SDS011;7105;43.616;1.434;2023-04-06T05:01:02;5.93;;;3.67;;
14060;SDS011;7105;43.616;1.434;2023-04-06T05:03:27;6.70;;;4.00;;
14060;SDS011;7105;43.616;1.434;2023-04-06T05:05:53;5.13;;;3.87;;
14060;SDS011;7105;43.616;1.434;2023-04-06T05:08:19;5.07;;;4.00;;
14060;SDS011;7105;43.616;1.434;2023-04-06T05:10:45;5.20;;;3.77;;
14060;SDS011;7105;43.616;1.434;2023-04-06T05:13:13;7.23;;;3.77;;
14060;SDS011;7105;43.616;1.434;2023-04-06T05:15:39;4.70;;;3.90;;
14060;SDS011;7105;43.616;1.434;2023-04-06T05:18:05;6.13;;;3.73;;
14060;SDS011;7105;43.616;1.434;2023-04-06T05:20:35;4.60;;;3.63;;
14060;SDS011;7105;43.616;1.434;2023-04-06T05:23:01;9.10;;;4.27;;
14060;SDS011;7105;43.616;1.434;2023-04-06T05:25:27;5.47;;;3.87;;
14060;SDS011;7105;43.616;1.434;2023-04-06T05:27:53;7.20;;;4.63;;
14060;SDS011;7105;43.616;1.434;2023-04-06T05:30:20;5.90;;;4.30;;
14060;SDS011;7105;43.616;1.434;2023-04-06T05:32:46;5.93;;;4.10;;
14060;SDS011;7105;43.616;1.434;2023-04-06T05:35:12;5.07;;;3.93;;
14060;SDS011;7105;43.616;1.434;2023-04-06T05:37:38;4.97;;;3.80;;
14060;SDS011;7105;43.616;1.434;2023-04-06T05:40:04;6.03;;;4.13;;
14060;SDS011;7105;43.616;1.434;2023-04-06T05:42:37;13.50;;;4.27;;
14060;SDS011;7105;43.616;1.434;2023-04-06T05:45:06;7.97;;;4.30;;
14060;SDS011;7105;43.616;1.434;2023-04-06T05:47:32;6.53;;;4.53;;
14060;SDS011;7105;43.616;1.434;2023-04-06T05:49:58;6.27;;;4.40;;
14060;SDS011;7105;43.616;1.434;2023-04-06T05:52:24;5.90;;;4.33;;
14060;SDS011;7105;43.616;1.434;2023-04-06T05:54:49;5.97;;;4.50;;
14060;SDS011;7105;43.616;1.434;2023-04-06T05:57:17;9.43;;;4.27;;
14060;SDS011;7105;43.616;1.434;2023-04-06T05:59:43;9.50;;;4.80;;
14060;SDS011;7105;43.616;1.434;2023-04-06T06:02:09;8.27;;;4.93;;
14060;SDS011;7105;43.616;1.434;2023-04-06T06:04:35;5.67;;;4.20;;
14060;SDS011;7105;43.616;1.434;2023-04-06T06:07:01;8.17;;;4.60;;
14060;SDS011;7105;43.616;1.434;2023-04-06T06:09:27;7.43;;;4.73;;
14060;SDS011;7105;43.616;1.434;2023-04-06T06:11:52;7.07;;;4.53;;
14060;SDS011;7105;43.616;1.434;2023-04-06T06:14:18;8.27;;;5.33;;
14060;SDS011;7105;43.616;1.434;2023-04-06T06:16:44;7.40;;;4.20;;
14060;SDS011;7105;43.616;1.434;2023-04-06T06:19:10;6.77;;;4.57;;
14060;SDS011;7105;43.616;1.434;2023-04-06T06:21:36;6.73;;;4.77;;
14060;SDS011;7105;43.616;1.434;2023-04-06T06:24:02;8.53;;;4.97;;
14060;SDS011;7105;43.616;1.434;2023-04-06T06:26:27;6.50;;;4.87;;
14060;SDS011;7105;43.616;1.434;2023-04-06T06:28:53;6.03;;;4.67;;
14060;SDS011;7105;43.616;1.434;2023-04-06T06:31:20;6.37;;;4.40;;
14060;SDS011;7105;43.616;1.434;2023-04-06T06:33:48;6.90;;;5.00;;
14060;SDS011;7105;43.616;1.434;2023-04-06T06:36:17;7.67;;;4.57;;
14060;SDS011;7105;43.616;1.434;2023-04-06T06:38:43;5.80;;;4.53;;
14060;SDS011;7105;43.616;1.434;2023-04-06T06:41:09;5.90;;;4.23;;
14060;SDS011;7105;43.616;1.434;2023-04-06T06:43:35;7.00;;;4.73;;
14060;SDS011;7105;43.616;1.434;2023-04-06T06:46:01;6.07;;;4.73;;
14060;SDS011;7105;43.616;1.434;2023-04-06T06:48:27;7.30;;;4.43;;
14060;SDS011;7105;43.616;1.434;2023-04-06T06:50:56;7.20;;;4.70;;
14060;SDS011;7105;43.616;1.434;2023-04-06T06:53:22;7.73;;;4.27;;
14060;SDS011;7105;43.616;1.434;2023-04-06T06:55:49;7.60;;;5.27;;
14060;SDS011;7105;43.616;1.434;2023-04-06T06:58:15;7.33;;;5.33;;
14060;SDS011;7105;43.616;1.434;2023-04-06T07:00:42;10.70;;;6.23;;
14060;SDS011;7105;43.616;1.434;2023-04-06T07:03:08;8.00;;;5.83;;
14060;SDS011;7105;43.616;1.434;2023-04-06T07:05:34;9.37;;;5.83;;
14060;SDS011;7105;43.616;1.434;2023-04-06T07:08:00;8.40;;;5.93;;
14060;SDS011;7105;43.616;1.434;2023-04-06T07:10:26;10.63;;;7.47;;
14060;SDS011;7105;43.616;1.434;2023-04-06T07:12:52;12.77;;;6.57;;
14060;SDS011;7105;43.616;1.434;2023-04-06T07:15:17;9.40;;;6.10;;
14060;SDS011;7105;43.616;1.434;2023-04-06T07:17:43;11.63;;;7.20;;
14060;SDS011;7105;43.616;1.434;2023-04-06T07:20:12;10.27;;;7.23;;
14060;SDS011;7105;43.616;1.434;2023-04-06T07:22:38;12.70;;;7.13;;
14060;SDS011;7105;43.616;1.434;2023-04-06T07:25:04;13.63;;;8.30;;
14060;SDS011;7105;43.616;1.434;2023-04-06T07:27:31;13.47;;;8.27;;
14060;SDS011;7105;43.616;1.434;2023-04-06T07:29:57;12.10;;;8.80;;
14060;SDS011;7105;43.616;1.434;2023-04-06T07:32:22;13.90;;;7.90;;
14060;SDS011;7105;43.616;1.434;2023-04-06T07:34:48;10.37;;;7.83;;
14060;SDS011;7105;43.616;1.434;2023-04-06T07:37:14;15.80;;;8.87;;
14060;SDS011;7105;43.616;1.434;2023-04-06T07:39:40;14.50;;;8.63;;
14060;SDS011;7105;43.616;1.434;2023-04-06T07:42:06;16.20;;;8.20;;
14060;SDS011;7105;43.616;1.434;2023-04-06T07:44:31;13.20;;;7.80;;
14060;SDS011;7105;43.616;1.434;2023-04-06T07:46:57;11.03;;;6.57;;
14060;SDS011;7105;43.616;1.434;2023-04-06T07:49:23;9.60;;;6.10;;
14060;SDS011;7105;43.616;1.434;2023-04-06T07:51:48;11.43;;;5.53;;
14060;SDS011;7105;43.616;1.434;2023-04-06T07:54:14;10.40;;;5.60;;
14060;SDS011;7105;43.616;1.434;2023-04-06T07:56:40;6.90;;;4.90;;
14060;SDS011;7105;43.616;1.434;2023-04-06T07:59:05;9.60;;;5.23;;
14060;SDS011;7105;43.616;1.434;2023-04-06T08:01:31;11.17;;;5.10;;
14060;SDS011;7105;43.616;1.434;2023-04-06T08:03:57;6.87;;;5.10;;
14060;SDS011;7105;43.616;1.434;2023-04-06T08:06:23;8.53;;;5.23;;
14060;SDS011;7105;43.616;1.434;2023-04-06T08:08:50;8.03;;;5.40;;
14060;SDS011;7105;43.616;1.434;2023-04-06T08:11:15;6.73;;;5.20;;
14060;SDS011;7105;43.616;1.434;2023-04-06T08:13:41;9.20;;;5.00;;
14060;SDS011;7105;43.616;1.434;2023-04-06T08:16:07;8.17;;;5.10;;
14060;SDS011;7105;43.616;1.434;2023-04-06T08:18:32;7.33;;;4.70;;
14060;SDS011;7105;43.616;1.434;2023-04-06T08:20:58;9.97;;;4.87;;
14060;SDS011;7105;43.616;1.434;2023-04-06T08:23:24;8.53;;;4.73;;
14060;SDS011;7105;43.616;1.434;2023-04-06T08:25:50;7.10;;;4.77;;
14060;SDS011;7105;43.616;1.434;2023-04-06T08:28:18;6.53;;;4.97;;
14060;SDS011;7105;43.616;1.434;2023-04-06T08:30:43;6.23;;;5.23;;
14060;SDS011;7105;43.616;1.434;2023-04-06T08:33:09;6.40;;;4.90;;
14060;SDS011;7105;43.616;1.434;2023-04-06T08:35:35;8.97;;;6.57;;
14060;SDS011;7105;43.616;1.434;2023-04-06T08:38:01;6.90;;;5.10;;
14060;SDS011;7105;43.616;1.434;2023-04-06T08:40:27;7.47;;;5.97;;
14060;SDS011;7105;43.616;1.434;2023-04-06T08:42:54;10.60;;;5.13;;
14060;SDS011;7105;43.616;1.434;2023-04-06T08:45:21;12.47;;;5.50;;
14060;SDS011;7105;43.616;1.434;2023-04-06T08:47:50;7.63;;;5.20;;
14060;SDS011;7105;43.616;1.434;2023-04-06T08:50:17;6.37;;;4.60;;
14060;SDS011;7105;43.616;1.434;2023-04-06T08:52:44;8.00;;;5.30;;
14060;SDS011;7105;43.616;1.434;2023-04-06T08:55:12;6.20;;;5.10;;
14060;SDS011;7105;43.616;1.434;2023-04-06T08:57:38;5.90;;;4.90;;
14060;SDS011;7105;43.616;1.434;2023-04-06T09:00:06;9.63;;;5.77;;
14060;SDS011;7105;43.616;1.434;2023-04-06T09:02:36;5.23;;;4.73;;
14060;SDS011;7105;43.616;1.434;2023-04-06T09:05:05;5.90;;;5.30;;
14060;SDS011;7105;43.616;1.434;2023-04-06T09:07:35;6.07;;;5.23;;
14060;SDS011;7105;43.616;1.434;2023-04-06T09:10:01;8.10;;;5.10;;
14060;SDS011;7105;43.616;1.434;2023-04-06T09:12:29;7.43;;;5.00;;
14060;SDS011;7105;43.616;1.434;2023-04-06T09:14:58;7.53;;;4.90;;
14060;SDS011;7105;43.616;1.434;2023-04-06T09:17:28;7.60;;;4.47;;
14060;SDS011;7105;43.616;1.434;2023-04-06T09:19:55;5.73;;;3.90;;
14060;SDS011;7105;43.616;1.434;2023-04-06T09:22:22;3.73;;;2.93;;
14060;SDS011;7105;43.616;1.434;2023-04-06T09:24:51;5.77;;;3.70;;
14060;SDS011;7105;43.616;1.434;2023-04-06T09:27:29;5.10;;;3.60;;
14060;SDS011;7105;43.616;1.434;2023-04-06T09:30:05;5.47;;;3.30;;
14060;SDS011;7105;43.616;1.434;2023-04-06T09:32:32;4.57;;;3.37;;
14060;SDS011;7105;43.616;1.434;2023-04-06T09:35:09;7.00;;;3.77;;
14060;SDS011;7105;43.616;1.434;2023-04-06T09:37:35;4.80;;;3.70;;
14060;SDS011;7105;43.616;1.434;2023-04-06T09:40:02;4.93;;;3.30;;
14060;SDS011;7105;43.616;1.434;2023-04-06T09:42:29;5.27;;;3.77;;
14060;SDS011;7105;43.616;1.434;2023-04-06T09:44:54;4.30;;;3.50;;
14060;SDS011;7105;43.616;1.434;2023-04-06T09:47:20;5.20;;;3.80;;
14060;SDS011;7105;43.616;1.434;2023-04-06T09:49:48;5.60;;;3.73;;
14060;SDS011;7105;43.616;1.434;2023-04-06T09:52:15;6.20;;;4.07;;
14060;SDS011;7105;43.616;1.434;2023-04-06T09:54:42;6.13;;;3.57;;
14060;SDS011;7105;43.616;1.434;2023-04-06T10:02:01;5.00;;;3.53;;
14060;SDS011;7105;43.616;1.434;2023-04-06T10:04:43;4.80;;;3.63;;
14060;SDS011;7105;43.616;1.434;2023-04-06T10:07:13;4.07;;;3.50;;
14060;SDS011;7105;43.616;1.434;2023-04-06T10:09:40;5.63;;;3.20;;
14060;SDS011;7105;43.616;1.434;2023-04-06T10:12:10;3.57;;;3.27;;
14060;SDS011;7105;43.616;1.434;2023-04-06T10:14:37;5.83;;;3.47;;
14060;SDS011;7105;43.616;1.434;2023-04-06T10:17:06;3.83;;;3.00;;
14060;SDS011;7105;43.616;1.434;2023-04-06T10:19:44;4.73;;;3.97;;
14060;SDS011;7105;43.616;1.434;2023-04-06T10:22:12;7.27;;;3.77;;
14060;SDS011;7105;43.616;1.434;2023-04-06T10:24:44;5.40;;;3.70;;
14060;SDS011;7105;43.616;1.434;2023-04-06T10:27:10;4.43;;;3.50;;
14060;SDS011;7105;43.616;1.434;2023-04-06T10:29:45;3.57;;;3.27;;
14060;SDS011;7105;43.616;1.434;2023-04-06T10:32:13;5.10;;;3.50;;
14060;SDS011;7105;43.616;1.434;2023-04-06T10:34:39;8.47;;;3.50;;
14060;SDS011;7105;43.616;1.434;2023-04-06T10:37:14;4.47;;;3.50;;
14060;SDS011;7105;43.616;1.434;2023-04-06T10:39:53;6.00;;;3.47;;
14060;SDS011;7105;43.616;1.434;2023-04-06T10:42:41;4.77;;;3.10;;
14060;SDS011;7105;43.616;1.434;2023-04-06T10:45:07;4.07;;;2.87;;
14060;SDS011;7105;43.616;1.434;2023-04-06T10:47:48;5.53;;;2.67;;
14060;SDS011;7105;43.616;1.434;2023-04-06T10:50:15;4.60;;;2.70;;
14060;SDS011;7105;43.616;1.434;2023-04-06T10:52:43;4.37;;;2.97;;
14060;SDS011;7105;43.616;1.434;2023-04-06T10:55:10;4.60;;;3.00;;
14060;SDS011;7105;43.616;1.434;2023-04-06T10:57:40;3.67;;;2.67;;
14060;SDS011;7105;43.616;1.434;2023-04-06T11:00:07;3.03;;;2.73;;
14060;SDS011;7105;43.616;1.434;2023-04-06T11:02:34;3.60;;;2.50;;
14060;SDS011;7105;43.616;1.434;2023-04-06T11:05:01;5.43;;;3.20;;
14060;SDS011;7105;43.616;1.434;2023-04-06T11:07:27;4.77;;;3.17;;
14060;SDS011;7105;43.616;1.434;2023-04-06T11:09:55;3.87;;;2.77;;
14060;SDS011;7105;43.616;1.434;2023-04-06T11:12:25;3.23;;;2.50;;
14060;SDS011;7105;43.616;1.434;2023-04-06T11:14:52;4.10;;;2.53;;
14060;SDS011;7105;43.616;1.434;2023-04-06T11:17:30;3.60;;;2.67;;
14060;SDS011;7105;43.616;1.434;2023-04-06T11:20:01;3.57;;;2.60;;
14060;SDS011;7105;43.616;1.434;2023-04-06T11:22:28;4.03;;;2.90;;
14060;SDS011;7105;43.616;1.434;2023-04-06T11:25:07;3.97;;;2.80;;
14060;SDS011;7105;43.616;1.434;2023-04-06T11:27:34;4.53;;;2.50;;
14060;SDS011;7105;43.616;1.434;2023-04-06T11:30:00;4.57;;;3.63;;
14060;SDS011;7105;43.616;1.434;2023-04-06T11:32:27;2.60;;;2.40;;
14060;SDS011;7105;43.616;1.434;2023-04-06T11:34:52;5.43;;;2.47;;
14060;SDS011;7105;43.616;1.434;2023-04-06T11:37:18;5.43;;;2.50;;
14060;SDS011;7105;43.616;1.434;2023-04-06T11:39:51;3.57;;;2.53;;
14060;SDS011;7105;43.616;1.434;2023-04-06T11:42:23;3.17;;;2.20;;
14060;SDS011;7105;43.616;1.434;2023-04-06T11:44:52;5.10;;;2.23;;
14060;SDS011;7105;43.616;1.434;2023-04-06T11:47:20;2.10;;;1.80;;
14060;SDS011;7105;43.616;1.434;2023-04-06T11:50:05;2.97;;;2.27;;
14060;SDS011;7105;43.616;1.434;2023-04-06T11:52:38;4.13;;;2.00;;
14060;SDS011;7105;43.616;1.434;2023-04-06T11:55:12;2.30;;;1.80;;
14060;SDS011;7105;43.616;1.434;2023-04-06T11:57:41;2.63;;;1.90;;
14060;SDS011;7105;43.616;1.434;2023-04-06T12:00:07;2.63;;;1.80;;
14060;SDS011;7105;43.616;1.434;2023-04-06T12:02:34;2.40;;;2.00;;
14060;SDS011;7105;43.616;1.434;2023-04-06T12:05:01;3.43;;;2.20;;
14060;SDS011;7105;43.616;1.434;2023-04-06T12:07:28;3.07;;;2.13;;
14060;SDS011;7105;43.616;1.434;2023-04-06T12:09:54;2.67;;;2.00;;
14060;SDS011;7105;43.616;1.434;2023-04-06T12:12:20;2.50;;;1.77;;
14060;SDS011;7105;43.616;1.434;2023-04-06T12:14:46;2.33;;;1.80;;
14060;SDS011;7105;43.616;1.434;2023-04-06T12:17:12;2.47;;;2.07;;
14060;SDS011;7105;43.616;1.434;2023-04-06T12:19:37;2.83;;;1.97;;
14060;SDS011;7105;43.616;1.434;2023-04-06T12:22:03;3.43;;;1.80;;
14060;SDS011;7105;43.616;1.434;2023-04-06T12:24:29;2.50;;;1.70;;
14060;SDS011;7105;43.616;1.434;2023-04-06T12:26:54;2.90;;;1.77;;
14060;SDS011;7105;43.616;1.434;2023-04-06T12:29:20;2.10;;;1.73;;
14060;SDS011;7105;43.616;1.434;2023-04-06T12:31:46;2.33;;;1.33;;
14060;SDS011;7105;43.616;1.434;2023-04-06T12:34:12;3.07;;;1.60;;
14060;SDS011;7105;43.616;1.434;2023-04-06T12:36:37;2.00;;;1.77;;
14060;SDS011;7105;43.616;1.434;2023-04-06T12:39:04;2.20;;;1.60;;
14060;SDS011;7105;43.616;1.434;2023-04-06T12:41:30;1.90;;;1.60;;
14060;SDS011;7105;43.616;1.434;2023-04-06T12:43:56;2.00;;;1.70;;
14060;SDS011;7105;43.616;1.434;2023-04-06T12:46:21;2.47;;;1.60;;
14060;SDS011;7105;43.616;1.434;2023-04-06T12:48:48;2.13;;;1.90;;
14060;SDS011;7105;43.616;1.434;2023-04-06T12:51:13;3.03;;;1.70;;
14060;SDS011;7105;43.616;1.434;2023-04-06T12:53:39;2.43;;;1.90;;
14060;SDS011;7105;43.616;1.434;2023-04-06T12:56:12;2.00;;;1.60;;
14060;SDS011;7105;43.616;1.434;2023-04-06T12:58:43;2.27;;;1.50;;
14060;SDS011;7105;43.616;1.434;2023-04-06T13:01:09;1.90;;;1.70;;
14060;SDS011;7105;43.616;1.434;2023-04-06T13:03:37;2.67;;;1.40;;
14060;SDS011;7105;43.616;1.434;2023-04-06T13:06:03;5.87;;;1.60;;
14060;SDS011;7105;43.616;1.434;2023-04-06T13:08:29;3.10;;;2.03;;
14060;SDS011;7105;43.616;1.434;2023-04-06T13:10:55;2.73;;;1.50;;
14060;SDS011;7105;43.616;1.434;2023-04-06T13:13:28;1.70;;;1.60;;
14060;SDS011;7105;43.616;1.434;2023-04-06T13:15:55;1.97;;;1.40;;
14060;SDS011;7105;43.616;1.434;2023-04-06T13:18:29;1.60;;;1.50;;
14060;SDS011;7105;43.616;1.434;2023-04-06T13:20:56;3.07;;;1.77;;
14060;SDS011;7105;43.616;1.434;2023-04-06T13:23:25;1.80;;;1.37;;
14060;SDS011;7105;43.616;1.434;2023-04-06T13:26:04;2.30;;;1.63;;
14060;SDS011;7105;43.616;1.434;2023-04-06T13:28:31;4.93;;;1.80;;
14060;SDS011;7105;43.616;1.434;2023-04-06T13:30:58;2.07;;;1.40;;
14060;SDS011;7105;43.616;1.434;2023-04-06T13:33:25;2.10;;;1.67;;
14060;SDS011;7105;43.616;1.434;2023-04-06T13:35:51;1.60;;;1.40;;
14060;SDS011;7105;43.616;1.434;2023-04-06T13:38:17;1.50;;;1.40;;
14060;SDS011;7105;43.616;1.434;2023-04-06T13:40:43;3.10;;;1.50;;
14060;SDS011;7105;43.616;1.434;2023-04-06T13:43:09;2.00;;;1.80;;
14060;SDS011;7105;43.616;1.434;2023-04-06T13:45:36;2.33;;;1.60;;
14060;SDS011;7105;43.616;1.434;2023-04-06T13:48:01;2.20;;;1.63;;
14060;SDS011;7105;43.616;1.434;2023-04-06T13:50:27;2.23;;;1.27;;
14060;SDS011;7105;43.616;1.434;2023-04-06T13:52:53;1.60;;;1.50;;
14060;SDS011;7105;43.616;1.434;2023-04-06T13:55:19;1.30;;;1.10;;
14060;SDS011;7105;43.616;1.434;2023-04-06T13:57:45;2.00;;;1.60;;
14060;SDS011;7105;43.616;1.434;2023-04-06T14:00:11;2.23;;;1.50;;
14060;SDS011;7105;43.616;1.434;2023-04-06T14:02:38;3.27;;;1.50;;
14060;SDS011;7105;43.616;1.434;2023-04-06T14:05:04;1.70;;;1.30;;
14060;SDS011;7105;43.616;1.434;2023-04-06T14:07:30;2.03;;;1.53;;
14060;SDS011;7105;43.616;1.434;2023-04-06T14:09:56;1.93;;;1.40;;
14060;SDS011;7105;43.616;1.434;2023-04-06T14:12:21;3.17;;;1.90;;
14060;SDS011;7105;43.616;1.434;2023-04-06T14:14:47;2.97;;;1.50;;
14060;SDS011;7105;43.616;1.434;2023-04-06T14:17:13;2.70;;;1.60;;
14060;SDS011;7105;43.616;1.434;2023-04-06T14:19:39;1.70;;;1.60;;
14060;SDS011;7105;43.616;1.434;2023-04-06T14:22:05;2.40;;;1.53;;
14060;SDS011;7105;43.616;1.434;2023-04-06T14:24:31;3.03;;;2.17;;
14060;SDS011;7105;43.616;1.434;2023-04-06T14:26:57;2.73;;;1.40;;
14060;SDS011;7105;43.616;1.434;2023-04-06T14:29:23;1.50;;;1.40;;
14060;SDS011;7105;43.616;1.434;2023-04-06T14:31:48;1.93;;;1.60;;
14060;SDS011;7105;43.616;1.434;2023-04-06T14:34:16;2.50;;;1.67;;
14060;SDS011;7105;43.616;1.434;2023-04-06T14:36:42;1.70;;;1.50;;
14060;SDS011;7105;43.616;1.434;2023-04-06T14:39:08;3.10;;;1.67;;
14060;SDS011;7105;43.616;1.434;2023-04-06T14:41:34;2.43;;;1.60;;
14060;SDS011;7105;43.616;1.434;2023-04-06T14:44:01;2.23;;;1.90;;
14060;SDS011;7105;43.616;1.434;2023-04-06T14:46:26;2.77;;;1.40;;
14060;SDS011;7105;43.616;1.434;2023-04-06T14:48:56;1.40;;;1.30;;
14060;SDS011;7105;43.616;1.434;2023-04-06T14:51:25;1.60;;;1.50;;
14060;SDS011;7105;43.616;1.434;2023-04-06T14:53:52;1.92;;;1.33;;
14060;SDS011;7105;43.616;1.434;2023-04-06T14:56:19;2.07;;;1.50;;
14060;SDS011;7105;43.616;1.434;2023-04-06T14:58:46;2.03;;;1.37;;
14060;SDS011;7105;43.616;1.434;2023-04-06T15:01:11;3.70;;;1.50;;
14060;SDS011;7105;43.616;1.434;2023-04-06T15:03:37;2.70;;;1.20;;